createdAt,value
2018-11-22T00:00:18.938Z,0
2018-11-22T00:01:19.532Z,0
2018-11-22T00:02:20.125Z,0
2018-11-22T00:03:20.711Z,0
2018-11-22T00:04:21.304Z,0
2018-11-22T00:05:21.889Z,0
2018-11-22T00:06:22.486Z,0
2018-11-22T00:07:23.083Z,0
2018-11-22T00:08:23.666Z,0
2018-11-22T00:09:24.313Z,0
2018-11-22T00:10:24.851Z,0
2018-11-22T00:11:25.448Z,0
2018-11-22T00:12:26.043Z,0
2018-11-22T00:13:26.676Z,0
2018-11-22T00:14:27.263Z,0
2018-11-22T00:15:27.860Z,0
2018-11-22T00:16:28.449Z,0
2018-11-22T00:17:29.041Z,0
2018-11-22T00:18:29.628Z,0
2018-11-22T00:19:30.226Z,0
2018-11-22T00:20:30.816Z,0
2018-11-22T00:21:31.411Z,0
2018-11-22T00:22:31.999Z,0
2018-11-22T00:23:32.585Z,0
2018-11-22T00:24:33.174Z,0
2018-11-22T00:25:33.767Z,0
2018-11-22T00:26:34.360Z,0
2018-11-22T00:27:34.955Z,0
2018-11-22T00:28:35.586Z,0
2018-11-22T00:29:36.164Z,0
2018-11-22T00:30:36.757Z,0
2018-11-22T00:31:37.353Z,0
2018-11-22T00:32:37.946Z,0
2018-11-22T00:33:38.532Z,0
2018-11-22T00:34:39.125Z,0
2018-11-22T00:35:39.720Z,0
2018-11-22T00:36:40.315Z,0
2018-11-22T00:37:40.907Z,0
2018-11-22T00:38:41.506Z,0
2018-11-22T00:39:42.102Z,0
2018-11-22T00:40:42.698Z,0
2018-11-22T00:41:43.273Z,0
2018-11-22T00:42:43.868Z,0
2018-11-22T00:43:44.476Z,0
2018-11-22T00:44:45.050Z,0
2018-11-22T00:45:45.640Z,0
2018-11-22T00:46:46.237Z,0
2018-11-22T00:47:46.826Z,0
2018-11-22T00:48:47.417Z,0
2018-11-22T00:49:48.009Z,0
2018-11-22T00:50:48.603Z,0
2018-11-22T00:51:49.195Z,0
2018-11-22T00:52:49.775Z,0
2018-11-22T00:53:50.370Z,0
2018-11-22T00:54:50.989Z,0
2018-11-22T00:55:51.573Z,0
2018-11-22T00:56:52.169Z,0
2018-11-22T00:57:52.751Z,0
2018-11-22T00:58:53.338Z,0
2018-11-22T00:59:53.933Z,0
2018-11-22T01:00:54.546Z,0
2018-11-22T01:01:55.148Z,0
2018-11-22T01:02:55.751Z,0
2018-11-22T01:03:56.357Z,0
2018-11-22T01:04:56.957Z,0
2018-11-22T01:05:57.560Z,0
2018-11-22T01:06:58.161Z,0
2018-11-22T01:07:58.761Z,0
2018-11-22T01:08:59.362Z,0
2018-11-22T01:09:59.966Z,0
2018-11-22T01:11:00.564Z,0
2018-11-22T01:12:01.165Z,0
2018-11-22T01:13:01.766Z,0
2018-11-22T01:14:02.366Z,0
2018-11-22T01:15:02.971Z,0
2018-11-22T01:16:03.569Z,0
2018-11-22T01:17:04.171Z,0
2018-11-22T01:18:04.774Z,0
2018-11-22T01:19:05.375Z,0
2018-11-22T01:20:05.975Z,0
2018-11-22T01:21:06.576Z,0
2018-11-22T01:22:07.178Z,0
2018-11-22T01:23:07.802Z,0
2018-11-22T01:24:08.459Z,0
2018-11-22T01:25:09.009Z,0
2018-11-22T01:26:09.627Z,0
2018-11-22T01:27:10.228Z,0
2018-11-22T01:28:10.831Z,0
2018-11-22T01:29:11.433Z,0
2018-11-22T01:30:12.036Z,0
2018-11-22T01:31:12.667Z,0
2018-11-22T01:32:13.257Z,0
2018-11-22T01:33:13.865Z,0
2018-11-22T01:34:14.462Z,0
2018-11-22T01:35:15.062Z,0
2018-11-22T01:36:15.662Z,0
2018-11-22T01:37:16.265Z,0
2018-11-22T01:38:16.867Z,0
2018-11-22T01:39:17.465Z,0
2018-11-22T01:40:18.064Z,0
2018-11-22T01:41:18.666Z,0
2018-11-22T01:42:19.267Z,0
2018-11-22T01:43:19.869Z,0
2018-11-22T01:44:20.499Z,0
2018-11-22T01:45:21.094Z,0
2018-11-22T01:46:21.723Z,0
2018-11-22T01:47:22.318Z,0
2018-11-22T01:48:22.921Z,0
2018-11-22T01:49:23.524Z,0
2018-11-22T01:50:24.120Z,0
2018-11-22T01:51:24.721Z,0
2018-11-22T01:52:25.343Z,0
2018-11-22T01:53:25.945Z,0
2018-11-22T01:54:26.551Z,0
2018-11-22T01:55:27.148Z,0
2018-11-22T01:56:27.751Z,0
2018-11-22T01:57:28.348Z,0
2018-11-22T01:58:28.953Z,0
2018-11-22T01:59:29.529Z,0
2018-11-22T02:00:30.122Z,0
2018-11-22T02:01:30.714Z,0
2018-11-22T02:02:31.305Z,0
2018-11-22T02:03:31.897Z,0
2018-11-22T02:04:32.486Z,0
2018-11-22T02:05:33.076Z,0
2018-11-22T02:06:33.663Z,0
2018-11-22T02:07:34.254Z,0
2018-11-22T02:08:34.844Z,0
2018-11-22T02:09:35.440Z,0
2018-11-22T02:10:36.021Z,0
2018-11-22T02:11:36.622Z,0
2018-11-22T02:12:37.218Z,0
2018-11-22T02:13:37.830Z,0
2018-11-22T02:14:38.403Z,0
2018-11-22T02:15:38.994Z,0
2018-11-22T02:16:39.592Z,0
2018-11-22T02:17:40.189Z,0
2018-11-22T02:18:40.771Z,0
2018-11-22T02:19:41.365Z,0
2018-11-22T02:20:41.951Z,0
2018-11-22T02:21:42.544Z,0
2018-11-22T02:22:43.139Z,0
2018-11-22T02:23:43.730Z,0
2018-11-22T02:24:44.326Z,0
2018-11-22T02:25:44.909Z,0
2018-11-22T02:26:45.506Z,0
2018-11-22T02:27:46.095Z,0
2018-11-22T02:28:46.692Z,0
2018-11-22T02:29:47.288Z,0
2018-11-22T02:30:47.881Z,0
2018-11-22T02:31:48.519Z,0
2018-11-22T02:32:49.060Z,0
2018-11-22T02:33:49.641Z,0
2018-11-22T02:34:50.241Z,0
2018-11-22T02:35:50.833Z,0
2018-11-22T02:36:51.426Z,0
2018-11-22T02:37:52.014Z,0
2018-11-22T02:38:52.602Z,0
2018-11-22T02:39:53.191Z,0
2018-11-22T02:40:53.782Z,0
2018-11-22T02:41:54.380Z,0
2018-11-22T02:42:54.963Z,0
2018-11-22T02:43:55.560Z,0
2018-11-22T02:44:56.154Z,0
2018-11-22T02:45:56.747Z,0
2018-11-22T02:46:57.330Z,0
2018-11-22T02:47:57.927Z,0
2018-11-22T02:48:58.513Z,0
2018-11-22T02:49:59.108Z,0
2018-11-22T02:50:59.701Z,0
2018-11-22T02:52:00.297Z,0
2018-11-22T02:53:00.887Z,0
2018-11-22T02:54:01.479Z,0
2018-11-22T02:55:02.068Z,0
2018-11-22T02:56:02.657Z,0
2018-11-22T02:57:03.240Z,0
2018-11-22T02:58:03.833Z,0
2018-11-22T02:59:04.428Z,0
2018-11-22T03:00:05.017Z,0
2018-11-22T03:01:05.603Z,0
2018-11-22T03:02:06.197Z,0
2018-11-22T03:03:06.789Z,0
2018-11-22T03:04:07.377Z,0
2018-11-22T03:05:07.969Z,0
2018-11-22T03:06:08.555Z,0
2018-11-22T03:07:09.144Z,0
2018-11-22T03:08:09.732Z,0
2018-11-22T03:09:10.326Z,0
2018-11-22T03:10:10.916Z,0
2018-11-22T03:11:11.507Z,0
2018-11-22T03:12:12.097Z,0
2018-11-22T03:13:12.681Z,0
2018-11-22T03:14:13.278Z,0
2018-11-22T03:15:13.870Z,0
2018-11-22T03:16:14.470Z,0
2018-11-22T03:17:15.065Z,0
2018-11-22T03:18:15.640Z,0
2018-11-22T03:19:16.237Z,0
2018-11-22T03:20:16.831Z,0
2018-11-22T03:21:17.424Z,0
2018-11-22T03:22:18.015Z,0
2018-11-22T03:23:18.612Z,0
2018-11-22T03:24:19.202Z,0
2018-11-22T03:25:19.796Z,0
2018-11-22T03:26:20.391Z,0
2018-11-22T03:27:20.985Z,0
2018-11-22T03:28:21.573Z,0
2018-11-22T03:29:22.167Z,0
2018-11-22T03:30:22.761Z,0
2018-11-22T03:31:23.357Z,0
2018-11-22T03:32:23.948Z,0
2018-11-22T03:33:24.535Z,0
2018-11-22T03:34:25.130Z,0
2018-11-22T03:35:25.715Z,0
2018-11-22T03:36:26.300Z,0
2018-11-22T03:37:26.885Z,0
2018-11-22T03:38:27.470Z,0
2018-11-22T03:39:28.065Z,0
2018-11-22T03:40:28.648Z,0
2018-11-22T03:41:29.243Z,0
2018-11-22T03:42:29.826Z,0
2018-11-22T03:43:30.411Z,0
2018-11-22T03:44:30.996Z,0
2018-11-22T03:45:31.584Z,0
2018-11-22T03:46:32.180Z,0
2018-11-22T03:47:32.770Z,0
2018-11-22T03:48:33.369Z,0
2018-11-22T03:49:33.953Z,0
2018-11-22T03:50:34.548Z,0
2018-11-22T03:51:35.140Z,0
2018-11-22T03:52:35.731Z,0
2018-11-22T03:53:36.326Z,0
2018-11-22T03:54:36.918Z,0
2018-11-22T03:55:37.510Z,0
2018-11-22T03:56:38.105Z,0
2018-11-22T03:57:38.691Z,0
2018-11-22T03:58:39.286Z,0
2018-11-22T03:59:39.881Z,0
2018-11-22T04:00:40.475Z,0
2018-11-22T04:01:41.072Z,0
2018-11-22T04:02:41.665Z,0
2018-11-22T04:03:42.258Z,0
2018-11-22T04:04:42.852Z,0
2018-11-22T04:05:43.447Z,0
2018-11-22T04:06:44.053Z,0
2018-11-22T04:07:44.635Z,0
2018-11-22T04:08:45.228Z,0
2018-11-22T04:09:45.820Z,0
2018-11-22T04:10:46.420Z,0
2018-11-22T04:11:47.009Z,0
2018-11-22T04:12:47.587Z,0
2018-11-22T04:13:48.181Z,0
2018-11-22T04:14:48.769Z,0
2018-11-22T04:15:49.361Z,0
2018-11-22T04:16:49.969Z,0
2018-11-22T04:17:50.541Z,0
2018-11-22T04:18:51.128Z,0
2018-11-22T04:19:51.723Z,0
2018-11-22T04:20:52.312Z,0
2018-11-22T04:21:52.901Z,0
2018-11-22T04:22:53.493Z,0
2018-11-22T04:23:54.088Z,0
2018-11-22T04:24:54.682Z,0
2018-11-22T04:25:55.269Z,0
2018-11-22T04:26:55.858Z,0
2018-11-22T04:27:56.452Z,0
2018-11-22T04:28:57.041Z,0
2018-11-22T04:29:57.637Z,0
2018-11-22T04:30:58.221Z,0
2018-11-22T04:31:58.813Z,0
2018-11-22T04:32:59.403Z,0
2018-11-22T04:33:59.998Z,0
2018-11-22T04:35:00.596Z,0
2018-11-22T04:36:01.203Z,0
2018-11-22T04:37:01.783Z,0
2018-11-22T04:38:02.369Z,0
2018-11-22T04:39:02.961Z,0
2018-11-22T04:40:03.548Z,0
2018-11-22T04:41:04.143Z,0
2018-11-22T04:42:04.731Z,0
2018-11-22T04:43:05.328Z,0
2018-11-22T04:44:05.956Z,0
2018-11-22T04:45:06.515Z,0
2018-11-22T04:46:07.115Z,0
2018-11-22T04:47:07.696Z,0
2018-11-22T04:48:08.289Z,0
2018-11-22T04:49:08.881Z,0
2018-11-22T04:50:09.474Z,0
2018-11-22T04:51:10.075Z,0
2018-11-22T04:52:10.657Z,0
2018-11-22T04:53:11.251Z,0
2018-11-22T04:54:11.845Z,0
2018-11-22T04:55:12.477Z,0
2018-11-22T04:56:13.022Z,0
2018-11-22T04:57:13.626Z,0
2018-11-22T04:58:14.203Z,0
2018-11-22T04:59:14.796Z,0
2018-11-22T05:00:15.382Z,0
2018-11-22T05:01:15.980Z,0
2018-11-22T05:02:16.572Z,0
2018-11-22T05:03:17.170Z,0
2018-11-22T05:04:17.768Z,0
2018-11-22T05:05:18.362Z,0
2018-11-22T05:06:18.964Z,0
2018-11-22T05:07:19.568Z,0
2018-11-22T05:08:20.139Z,0
2018-11-22T05:09:20.725Z,0
2018-11-22T05:10:21.321Z,0
2018-11-22T05:11:21.913Z,0
2018-11-22T05:12:22.512Z,0
2018-11-22T05:13:23.126Z,0
2018-11-22T05:14:23.695Z,0
2018-11-22T05:15:24.289Z,0
2018-11-22T05:16:24.888Z,0
2018-11-22T05:17:25.489Z,0
2018-11-22T05:18:26.074Z,0
2018-11-22T05:19:26.670Z,0
2018-11-22T05:20:27.268Z,0
2018-11-22T05:21:27.858Z,0
2018-11-22T05:22:28.443Z,0
2018-11-22T05:23:29.074Z,0
2018-11-22T05:24:29.661Z,0
2018-11-22T05:25:30.258Z,0
2018-11-22T05:26:30.847Z,0
2018-11-22T05:27:31.442Z,0
2018-11-22T05:28:32.057Z,0
2018-11-22T05:29:32.632Z,0
2018-11-22T05:30:33.236Z,0
2018-11-22T05:31:33.820Z,0
2018-11-22T05:32:35.358Z,0
2018-11-22T05:33:35.004Z,0
2018-11-22T05:34:35.590Z,0
2018-11-22T05:35:36.181Z,0
2018-11-22T05:36:36.789Z,0
2018-11-22T05:37:37.373Z,0
2018-11-22T05:38:37.971Z,0
2018-11-22T05:39:38.561Z,0
2018-11-22T05:40:39.154Z,0
2018-11-22T05:41:43.844Z,0
2018-11-22T05:42:40.337Z,0
2018-11-22T05:43:40.933Z,0
2018-11-22T05:44:41.537Z,0
2018-11-22T05:45:42.125Z,0
2018-11-22T05:46:42.719Z,0
2018-11-22T05:47:43.315Z,0
2018-11-22T05:48:43.908Z,0
2018-11-22T05:49:44.490Z,0
2018-11-22T05:50:45.076Z,0
2018-11-22T05:51:45.671Z,0
2018-11-22T05:52:46.268Z,0
2018-11-22T05:53:46.874Z,0
2018-11-22T05:54:47.462Z,0
2018-11-22T05:55:48.049Z,0
2018-11-22T05:56:48.642Z,0
2018-11-22T05:57:49.240Z,0
2018-11-22T05:58:49.823Z,0
2018-11-22T05:59:50.416Z,0
2018-11-22T06:00:51.011Z,0
2018-11-22T06:01:51.601Z,0
2018-11-22T06:02:52.194Z,0
2018-11-22T06:03:52.792Z,0
2018-11-22T06:04:53.385Z,0
2018-11-22T06:05:53.973Z,0
2018-11-22T06:06:54.565Z,0
2018-11-22T06:07:55.158Z,0
2018-11-22T06:08:55.743Z,0
2018-11-22T06:09:56.340Z,0
2018-11-22T06:10:56.937Z,0
2018-11-22T06:11:57.521Z,0
2018-11-22T06:12:58.113Z,0
2018-11-22T06:13:58.700Z,0
2018-11-22T06:14:59.293Z,0
2018-11-22T06:15:59.888Z,0
2018-11-22T06:17:00.491Z,0
2018-11-22T06:18:01.067Z,0
2018-11-22T06:19:01.659Z,0
2018-11-22T06:20:02.250Z,0
2018-11-22T06:21:02.839Z,0
2018-11-22T06:22:03.427Z,0
2018-11-22T06:23:04.012Z,0
2018-11-22T06:24:04.610Z,0
2018-11-22T06:25:05.202Z,0
2018-11-22T06:26:05.814Z,0
2018-11-22T06:27:06.393Z,0
2018-11-22T06:28:06.984Z,0
2018-11-22T06:29:07.574Z,0
2018-11-22T06:30:08.167Z,0
2018-11-22T06:31:08.757Z,0
2018-11-22T06:32:09.353Z,0
2018-11-22T06:33:09.936Z,0
2018-11-22T06:34:10.530Z,0
2018-11-22T06:35:11.119Z,0
2018-11-22T06:36:11.722Z,0
2018-11-22T06:37:12.305Z,0
2018-11-22T06:38:12.899Z,0
2018-11-22T06:39:13.493Z,0
2018-11-22T06:40:14.090Z,0
2018-11-22T06:41:14.686Z,0
2018-11-22T06:42:15.297Z,0
2018-11-22T06:43:15.884Z,0
2018-11-22T06:44:16.480Z,0
2018-11-22T06:45:17.073Z,0
2018-11-22T06:46:17.685Z,0
2018-11-22T06:47:18.260Z,0
2018-11-22T06:48:18.852Z,0
2018-11-22T06:49:19.453Z,0
2018-11-22T06:50:20.044Z,0
2018-11-22T06:51:20.643Z,5
2018-11-22T06:52:21.238Z,5
2018-11-22T06:53:21.833Z,5
2018-11-22T06:54:22.423Z,5
2018-11-22T06:55:23.014Z,5
2018-11-22T06:56:23.607Z,10
2018-11-22T06:57:24.199Z,10
2018-11-22T06:58:24.793Z,10
2018-11-22T07:00:40.902Z,10
2018-11-22T07:01:41.458Z,10
2018-11-22T07:02:42.051Z,10
2018-11-22T07:03:42.695Z,15
2018-11-22T07:04:43.235Z,15
2018-11-22T07:05:43.837Z,15
2018-11-22T07:06:44.433Z,15
2018-11-22T07:07:45.022Z,15
2018-11-22T07:08:45.613Z,15
2018-11-22T07:09:46.210Z,15
2018-11-22T07:10:46.799Z,15
2018-11-22T07:11:47.402Z,20
2018-11-22T07:12:47.990Z,20
2018-11-22T07:13:48.575Z,20
2018-11-22T07:14:49.171Z,20
2018-11-22T07:15:49.760Z,20
2018-11-22T07:16:50.408Z,25
2018-11-22T07:17:50.995Z,25
2018-11-22T07:18:51.587Z,30
2018-11-22T07:19:52.219Z,30
2018-11-22T07:20:53.170Z,30
2018-11-22T07:21:53.694Z,35
2018-11-22T07:22:54.269Z,35
2018-11-22T07:23:54.895Z,40
2018-11-22T07:24:55.463Z,40
2018-11-22T07:25:56.106Z,40
2018-11-22T07:26:56.703Z,45
2018-11-22T07:27:57.299Z,45
2018-11-22T07:28:57.900Z,45
2018-11-22T07:29:58.488Z,45
2018-11-22T07:30:59.091Z,50
2018-11-22T07:31:59.680Z,50
2018-11-22T07:33:00.278Z,50
2018-11-22T07:34:00.875Z,50
2018-11-22T07:35:01.474Z,50
2018-11-22T07:36:02.072Z,55
2018-11-22T07:37:02.674Z,60
2018-11-22T07:38:03.257Z,65
2018-11-22T07:39:03.867Z,65
2018-11-22T07:40:04.456Z,70
2018-11-22T07:41:05.051Z,70
2018-11-22T07:42:05.648Z,75
2018-11-22T07:43:06.248Z,75
2018-11-22T07:44:06.848Z,75
2018-11-22T07:45:07.448Z,80
2018-11-22T07:46:08.040Z,80
2018-11-22T07:47:08.635Z,80
2018-11-22T07:48:09.230Z,85
2018-11-22T07:49:09.819Z,85
2018-11-22T07:50:10.418Z,90
2018-11-22T07:51:11.013Z,95
2018-11-22T07:52:11.613Z,100
2018-11-22T07:53:12.215Z,105
2018-11-22T07:54:12.811Z,105
2018-11-22T07:55:13.412Z,110
2018-11-22T07:56:14.004Z,110
2018-11-22T07:57:14.608Z,110
2018-11-22T07:58:15.205Z,110
2018-11-22T07:59:15.806Z,110
2018-11-22T08:00:16.403Z,115
2018-11-22T08:01:17.025Z,115
2018-11-22T08:02:17.599Z,115
2018-11-22T08:03:18.196Z,120
2018-11-22T08:04:18.804Z,120
2018-11-22T08:05:19.396Z,120
2018-11-22T08:06:19.993Z,125
2018-11-22T08:07:20.600Z,125
2018-11-22T08:08:21.187Z,130
2018-11-22T08:09:21.789Z,135
2018-11-22T08:10:22.389Z,135
2018-11-22T08:11:22.987Z,135
2018-11-22T08:12:25.983Z,140
2018-11-22T08:13:24.190Z,140
2018-11-22T08:14:24.782Z,140
2018-11-22T08:15:25.379Z,140
2018-11-22T08:16:25.981Z,140
2018-11-22T08:17:26.573Z,145
2018-11-22T08:18:27.172Z,150
2018-11-22T08:19:27.763Z,155
2018-11-22T08:20:28.357Z,160
2018-11-22T08:21:28.956Z,160
2018-11-22T08:22:29.556Z,160
2018-11-22T08:23:30.151Z,160
2018-11-22T08:24:30.751Z,160
2018-11-22T08:25:31.346Z,165
2018-11-22T08:26:31.943Z,165
2018-11-22T08:27:32.547Z,165
2018-11-22T08:28:33.146Z,170
2018-11-22T08:29:33.755Z,170
2018-11-22T08:30:34.341Z,175
2018-11-22T08:31:34.945Z,180
2018-11-22T08:32:35.554Z,180
2018-11-22T08:33:36.143Z,185
2018-11-22T08:34:36.743Z,185
2018-11-22T08:35:37.344Z,185
2018-11-22T08:36:37.946Z,190
2018-11-22T08:37:38.547Z,195
2018-11-22T08:38:39.398Z,200
2018-11-22T08:39:39.951Z,195
2018-11-22T08:40:40.553Z,195
2018-11-22T08:41:53.208Z,210
2018-11-22T08:42:55.268Z,215
2018-11-22T08:43:54.406Z,215
2018-11-22T08:44:55.008Z,225
2018-11-22T08:45:55.609Z,240
2018-11-22T08:46:56.207Z,235
2018-11-22T08:47:56.809Z,240
2018-11-22T08:48:57.814Z,245
2018-11-22T08:49:58.422Z,250
2018-11-22T08:50:59.015Z,260
2018-11-22T08:51:59.608Z,260
2018-11-22T08:53:00.223Z,265
2018-11-22T08:54:00.815Z,265
2018-11-22T08:55:01.417Z,280
2018-11-22T08:56:02.014Z,265
2018-11-22T08:57:02.605Z,245
2018-11-22T08:58:03.204Z,235
2018-11-22T08:59:03.825Z,215
2018-11-22T09:00:04.405Z,205
2018-11-22T09:01:04.999Z,215
2018-11-22T09:02:05.595Z,230
2018-11-22T09:03:06.207Z,235
2018-11-22T09:04:06.807Z,235
2018-11-22T09:05:07.409Z,245
2018-11-22T09:06:08.012Z,230
2018-11-22T09:07:08.614Z,230
2018-11-22T09:08:09.209Z,230
2018-11-22T09:09:09.824Z,225
2018-11-22T09:10:10.424Z,235
2018-11-22T09:11:11.051Z,235
2018-11-22T09:12:11.617Z,235
2018-11-22T09:13:12.261Z,240
2018-11-22T09:14:12.862Z,250
2018-11-22T09:15:13.458Z,235
2018-11-22T09:16:14.058Z,215
2018-11-22T09:17:14.662Z,205
2018-11-22T09:18:15.263Z,200
2018-11-22T09:19:15.857Z,200
2018-11-22T09:20:16.454Z,195
2018-11-22T09:21:17.058Z,195
2018-11-22T09:22:17.657Z,190
2018-11-22T09:23:18.260Z,185
2018-11-22T09:24:24.083Z,180
2018-11-22T09:25:20.445Z,180
2018-11-22T09:26:21.048Z,185
2018-11-22T09:27:21.639Z,180
2018-11-22T09:28:22.344Z,175
2018-11-22T09:29:22.947Z,180
2018-11-22T09:30:23.546Z,175
2018-11-22T09:31:24.153Z,175
2018-11-22T09:32:24.753Z,185
2018-11-22T09:33:25.355Z,185
2018-11-22T09:34:25.948Z,190
2018-11-22T09:35:26.782Z,200
2018-11-22T09:36:27.237Z,205
2018-11-22T09:37:27.842Z,225
2018-11-22T09:38:28.441Z,230
2018-11-22T09:39:29.041Z,245
2018-11-22T09:40:29.647Z,285
2018-11-22T09:41:30.232Z,260
2018-11-22T09:42:30.857Z,315
2018-11-22T09:43:31.442Z,375
2018-11-22T09:44:32.039Z,375
2018-11-22T09:45:32.632Z,385
2018-11-22T09:46:33.231Z,385
2018-11-22T09:47:33.832Z,350
2018-11-22T09:48:34.440Z,335
2018-11-22T09:49:35.033Z,305
2018-11-22T09:50:35.840Z,285
2018-11-22T09:51:36.449Z,285
2018-11-22T09:52:37.055Z,340
2018-11-22T09:53:37.671Z,345
2018-11-22T09:54:38.252Z,300
2018-11-22T09:55:38.867Z,310
2018-11-22T09:56:39.467Z,345
2018-11-22T09:57:40.060Z,380
2018-11-22T09:58:40.659Z,415
2018-11-22T09:59:41.270Z,420
2018-11-22T10:00:41.871Z,430
2018-11-22T10:01:42.470Z,430
2018-11-22T10:02:43.076Z,420
2018-11-22T10:03:43.671Z,380
2018-11-22T10:04:44.349Z,330
2018-11-22T10:05:44.939Z,345
2018-11-22T10:06:45.500Z,320
2018-11-22T10:07:46.098Z,275
2018-11-22T10:08:46.702Z,340
2018-11-22T10:09:47.321Z,410
2018-11-22T10:10:47.912Z,440
2018-11-22T10:11:48.512Z,435
2018-11-22T10:12:49.217Z,425
2018-11-22T10:13:49.819Z,390
2018-11-22T10:14:50.425Z,365
2018-11-22T10:15:51.020Z,370
2018-11-22T10:16:51.633Z,400
2018-11-22T10:17:52.232Z,415
2018-11-22T10:18:52.836Z,445
2018-11-22T10:19:53.442Z,445
2018-11-22T10:20:54.051Z,450
2018-11-22T10:21:54.660Z,445
2018-11-22T10:22:55.263Z,435
2018-11-22T10:23:55.999Z,445
2018-11-22T10:24:56.470Z,445
2018-11-22T10:25:57.084Z,445
2018-11-22T10:26:57.686Z,445
2018-11-22T10:27:58.292Z,445
2018-11-22T10:28:59.056Z,440
2018-11-22T10:29:59.657Z,440
2018-11-22T10:31:00.258Z,445
2018-11-22T10:32:00.869Z,445
2018-11-22T10:33:01.465Z,440
2018-11-22T10:34:02.075Z,430
2018-11-22T10:35:02.733Z,430
2018-11-22T10:36:03.297Z,425
2018-11-22T10:37:03.899Z,425
2018-11-22T10:39:32.056Z,420
2018-11-22T10:40:32.658Z,425
2018-11-22T10:41:33.253Z,415
2018-11-22T10:42:33.898Z,410
2018-11-22T10:43:34.461Z,405
2018-11-22T10:44:35.068Z,405
2018-11-22T10:45:35.667Z,405
2018-11-22T10:46:36.274Z,400
2018-11-22T10:47:36.896Z,400
2018-11-22T10:48:37.503Z,395
2018-11-22T10:49:38.111Z,385
2018-11-22T10:50:38.705Z,385
2018-11-22T10:51:39.306Z,385
2018-11-22T10:52:39.931Z,380
2018-11-22T10:53:40.520Z,380
2018-11-22T10:54:41.121Z,380
2018-11-22T10:55:41.726Z,380
2018-11-22T10:56:42.338Z,375
2018-11-22T10:57:42.946Z,330
2018-11-22T10:58:43.555Z,315
2018-11-22T10:59:44.159Z,285
2018-11-22T11:00:44.760Z,250
2018-11-22T11:01:45.367Z,230
2018-11-22T11:02:46.073Z,215
2018-11-22T11:03:46.679Z,215
2018-11-22T11:04:47.279Z,230
2018-11-22T11:05:47.886Z,260
2018-11-22T11:06:48.495Z,285
2018-11-22T11:07:49.103Z,310
2018-11-22T11:08:49.709Z,330
2018-11-22T11:09:50.301Z,330
2018-11-22T11:10:50.910Z,340
2018-11-22T11:11:51.511Z,345
2018-11-22T11:12:52.113Z,320
2018-11-22T11:13:52.713Z,325
2018-11-22T11:14:53.336Z,335
2018-11-22T11:15:53.926Z,320
2018-11-22T11:16:54.530Z,310
2018-11-22T11:17:55.141Z,295
2018-11-22T11:18:55.747Z,285
2018-11-22T11:19:56.352Z,275
2018-11-22T11:20:56.957Z,265
2018-11-22T11:21:57.566Z,265
2018-11-22T11:22:58.166Z,255
2018-11-22T11:23:58.776Z,245
2018-11-22T11:24:59.369Z,240
2018-11-22T11:25:59.980Z,240
2018-11-22T11:27:00.581Z,235
2018-11-22T11:28:01.205Z,245
2018-11-22T11:29:01.781Z,235
2018-11-22T11:30:02.376Z,230
2018-11-22T11:31:04.032Z,230
2018-11-22T11:32:04.628Z,230
2018-11-22T11:33:05.234Z,230
2018-11-22T11:34:05.838Z,230
2018-11-22T11:35:06.434Z,235
2018-11-22T11:37:23.671Z,255
2018-11-22T11:38:24.279Z,260
2018-11-22T11:39:24.881Z,270
2018-11-22T11:40:26.528Z,290
2018-11-22T11:41:27.134Z,295
2018-11-22T11:43:43.275Z,325
2018-11-22T11:44:43.878Z,340
2018-11-22T11:45:45.321Z,350
2018-11-22T11:46:45.928Z,370
2018-11-22T11:47:46.524Z,390
2018-11-22T11:48:47.129Z,410
2018-11-22T11:49:47.774Z,410
2018-11-22T11:50:48.374Z,430
2018-11-22T11:51:48.975Z,450
2018-11-22T11:52:49.578Z,455
2018-11-22T11:53:50.190Z,475
2018-11-22T11:54:50.793Z,495
2018-11-22T11:55:51.388Z,495
2018-11-22T11:56:51.992Z,495
2018-11-22T11:57:52.592Z,520
2018-11-22T11:58:53.194Z,525
2018-11-22T11:59:53.793Z,535
2018-11-22T12:00:54.397Z,540
2018-11-22T12:01:55.005Z,535
2018-11-22T12:02:55.609Z,535
2018-11-22T12:03:56.618Z,530
2018-11-22T12:04:57.223Z,535
2018-11-22T12:05:57.829Z,565
2018-11-22T12:06:58.430Z,565
2018-11-22T12:07:59.023Z,595
2018-11-22T12:08:59.630Z,600
2018-11-22T12:10:00.243Z,570
2018-11-22T12:11:00.840Z,535
2018-11-22T12:12:01.495Z,510
2018-11-22T12:13:02.103Z,485
2018-11-22T12:14:02.709Z,480
2018-11-22T12:15:03.306Z,490
2018-11-22T12:16:03.910Z,515
2018-11-22T12:17:04.617Z,540
2018-11-22T12:18:05.223Z,550
2018-11-22T12:19:05.835Z,575
2018-11-22T12:20:06.443Z,595
2018-11-22T12:21:07.042Z,580
2018-11-22T12:22:07.657Z,560
2018-11-22T12:23:08.257Z,525
2018-11-22T12:24:08.856Z,495
2018-11-22T12:25:09.469Z,485
2018-11-22T12:26:10.070Z,460
2018-11-22T12:27:10.678Z,440
2018-11-22T12:28:11.289Z,420
2018-11-22T12:29:11.887Z,415
2018-11-22T12:30:12.495Z,405
2018-11-22T12:31:13.092Z,395
2018-11-22T12:32:13.693Z,385
2018-11-22T12:33:14.304Z,375
2018-11-22T12:34:14.910Z,370
2018-11-22T12:35:15.506Z,370
2018-11-22T12:36:16.103Z,360
2018-11-22T12:37:16.713Z,375
2018-11-22T12:38:17.308Z,390
2018-11-22T12:39:17.918Z,400
2018-11-22T12:40:18.519Z,410
2018-11-22T12:41:19.136Z,415
2018-11-22T12:42:19.732Z,425
2018-11-22T12:43:20.331Z,420
2018-11-22T12:44:20.937Z,385
2018-11-22T12:45:21.539Z,345
2018-11-22T12:46:22.146Z,305
2018-11-22T12:47:22.741Z,270
2018-11-22T12:48:23.345Z,255
2018-11-22T12:49:23.951Z,245
2018-11-22T12:50:24.562Z,240
2018-11-22T12:51:25.166Z,225
2018-11-22T12:52:25.778Z,215
2018-11-22T12:53:26.369Z,215
2018-11-22T12:54:26.970Z,210
2018-11-22T12:55:27.569Z,210
2018-11-22T12:56:28.169Z,205
2018-11-22T12:57:28.779Z,205
2018-11-22T12:58:29.375Z,205
2018-11-22T12:59:29.973Z,210
2018-11-22T13:00:30.574Z,220
2018-11-22T13:01:31.185Z,230
2018-11-22T13:02:31.797Z,230
2018-11-22T13:03:32.386Z,225
2018-11-22T13:04:32.993Z,215
2018-11-22T13:05:33.592Z,210
2018-11-22T13:06:34.197Z,205
2018-11-22T13:07:34.790Z,200
2018-11-22T13:08:35.391Z,200
2018-11-22T13:09:35.986Z,200
2018-11-22T13:10:36.589Z,195
2018-11-22T13:11:37.191Z,190
2018-11-22T13:12:37.790Z,185
2018-11-22T13:13:38.385Z,185
2018-11-22T13:14:38.981Z,180
2018-11-22T13:15:39.583Z,190
2018-11-22T13:16:40.192Z,200
2018-11-22T13:17:40.793Z,210
2018-11-22T13:18:41.397Z,215
2018-11-22T13:19:41.999Z,220
2018-11-22T13:20:42.607Z,235
2018-11-22T13:21:43.210Z,250
2018-11-22T13:22:43.803Z,255
2018-11-22T13:23:44.404Z,250
2018-11-22T13:24:45.010Z,245
2018-11-22T13:25:45.617Z,240
2018-11-22T13:26:46.218Z,230
2018-11-22T13:27:46.818Z,225
2018-11-22T13:28:47.416Z,215
2018-11-22T13:29:48.109Z,195
2018-11-22T13:30:48.713Z,180
2018-11-22T13:31:49.336Z,165
2018-11-22T13:32:49.925Z,155
2018-11-22T13:33:50.527Z,150
2018-11-22T13:34:51.123Z,155
2018-11-22T13:35:51.717Z,155
2018-11-22T13:36:52.320Z,155
2018-11-22T13:37:52.927Z,155
2018-11-22T13:38:53.527Z,155
2018-11-22T13:39:54.127Z,150
2018-11-22T13:40:54.720Z,150
2018-11-22T13:41:55.314Z,150
2018-11-22T13:42:55.906Z,150
2018-11-22T13:43:56.506Z,150
2018-11-22T13:44:57.096Z,145
2018-11-22T13:45:57.697Z,145
2018-11-22T13:46:58.313Z,145
2018-11-22T13:47:58.938Z,145
2018-11-22T13:48:59.500Z,145
2018-11-22T13:50:00.101Z,145
2018-11-22T13:51:00.694Z,140
2018-11-22T13:52:01.300Z,140
2018-11-22T13:53:01.903Z,140
2018-11-22T13:54:02.505Z,140
2018-11-22T13:55:03.435Z,140
2018-11-22T13:56:03.696Z,140
2018-11-22T13:57:04.290Z,140
2018-11-22T13:58:04.882Z,140
2018-11-22T13:59:05.492Z,135
2018-11-22T14:00:06.085Z,135
2018-11-22T14:02:22.166Z,135
2018-11-22T14:03:22.766Z,135
2018-11-22T14:04:23.373Z,135
2018-11-22T14:05:23.967Z,130
2018-11-22T14:06:24.568Z,130
2018-11-22T14:07:25.163Z,130
2018-11-22T14:08:25.754Z,125
2018-11-22T14:09:26.345Z,125
2018-11-22T14:10:26.951Z,125
2018-11-22T14:11:27.547Z,125
2018-11-22T14:12:28.151Z,120
2018-11-22T14:13:28.752Z,120
2018-11-22T14:14:29.352Z,120
2018-11-22T14:15:29.954Z,120
2018-11-22T14:16:30.588Z,120
2018-11-22T14:17:31.194Z,120
2018-11-22T14:18:31.793Z,115
2018-11-22T14:19:32.394Z,115
2018-11-22T14:20:33.002Z,115
2018-11-22T14:21:33.593Z,110
2018-11-22T14:22:34.197Z,110
2018-11-22T14:23:34.779Z,110
2018-11-22T14:24:35.376Z,105
2018-11-22T14:25:35.970Z,105
2018-11-22T14:26:36.565Z,105
2018-11-22T14:27:37.187Z,105
2018-11-22T14:28:37.768Z,105
2018-11-22T14:29:38.360Z,100
2018-11-22T14:30:38.956Z,100
2018-11-22T14:31:39.559Z,100